Time;durP1;ratioP1;P1;durP2;ratioP2;P2;SDS_P1;SDS_P2;PMS_P1;PMS_P2;Temp;Humidity;BMP_temperature;BMP_pressure;BME280_temperature;BME280_humidity;BME280_pressure;Samples;Min_cycle;Max_cycle;Signal;HPM_P1;HPM_P2
2022/03/27 00:01:49;;;;;;;;;;;5.10;99.90;;;;;;5097483;28;19924;-72
2022/03/27 00:04:16;;;;;;;;;;;5.00;99.90;;;;;;5109491;28;19927;-72
2022/03/27 00:06:43;;;;;;;;;;;4.90;99.90;;;;;;5094819;28;19920;-72
2022/03/27 00:09:13;;;;;;;;;;;5.00;99.90;;;;;;5095224;28;19963;-72
2022/03/27 00:11:40;;;;;;;;;;;5.10;99.90;;;;;;5094696;28;20414;-72
2022/03/27 00:14:06;;;;;;;;;;;5.30;99.90;;;;;;5101642;28;19930;-72
2022/03/27 00:16:34;;;;;;;;;;;5.50;99.90;;;;;;5097004;28;19932;-72
2022/03/27 00:19:01;;;;;;;;;;;5.60;99.90;;;;;;5106790;28;19920;-72
2022/03/27 00:21:28;;;;;;;;;;;5.70;99.90;;;;;;5076344;28;19926;-72
2022/03/27 00:23:55;;;;;;;;;;;5.80;99.90;;;;;;5094750;28;20004;-72
2022/03/27 00:26:22;;;;;;;;;;;5.90;99.90;;;;;;5095463;28;20010;-72
2022/03/27 00:28:55;;;;;;;;;;;5.90;99.90;;;;;;5112510;28;19926;-72
2022/03/27 00:31:21;;;;;;;;;;;6.00;99.90;;;;;;5094774;28;19923;-71
2022/03/27 00:33:48;;;;;;;;;;;6.20;99.90;;;;;;5094562;28;20006;-73
2022/03/27 00:36:15;;;;;;;;;;;6.20;99.90;;;;;;5102545;28;19924;-73
2022/03/27 00:38:44;;;;;;;;;;;6.30;99.90;;;;;;5108111;28;19919;-73
2022/03/27 00:41:14;;;;;;;;;;;6.40;99.90;;;;;;5092880;28;20044;-73
2022/03/27 00:43:41;;;;;;;;;;;6.50;99.90;;;;;;5104812;28;19988;-73
2022/03/27 00:46:11;;;;;;;;;;;6.60;99.90;;;;;;5103701;28;20288;-72
2022/03/27 00:48:38;;;;;;;;;;;6.70;99.90;;;;;;5101827;28;19947;-72
2022/03/27 00:51:07;;;;;;;;;;;6.70;99.90;;;;;;5094483;28;19931;-72
2022/03/27 00:53:34;;;;;;;;;;;6.80;99.90;;;;;;5110740;28;19923;-72
2022/03/27 00:56:01;;;;;;;;;;;6.90;99.90;;;;;;5108280;28;19943;-72
2022/03/27 00:58:27;;;;;;;;;;;7.00;99.90;;;;;;5092636;28;19924;-72
2022/03/27 01:01:03;;;;;;;;;;;7.20;99.90;;;;;;5091484;28;19938;-73
2022/03/27 01:03:31;;;;;;;;;;;7.20;99.90;;;;;;5083707;28;19924;-72
2022/03/27 01:05:58;;;;;;;;;;;7.20;99.90;;;;;;5093380;28;19955;-73
2022/03/27 01:11:16;;;;;;;;;;;7.10;99.90;;;;;;5111879;28;20002;-72
2022/03/27 01:13:49;;;;;;;;;;;6.90;99.90;;;;;;5101387;28;19927;-72
2022/03/27 01:16:17;;;;;;;;;;;6.80;99.90;;;;;;5105664;28;20019;-72
2022/03/27 01:18:44;;;;;;;;;;;6.80;99.90;;;;;;5088893;28;19924;-72
2022/03/27 01:21:11;;;;;;;;;;;6.70;99.90;;;;;;5111365;28;19923;-73
2022/03/27 01:23:38;;;;;;;;;;;6.70;99.90;;;;;;5108815;28;20015;-72
2022/03/27 01:26:05;;;;;;;;;;;6.60;99.90;;;;;;5085015;28;20006;-72
2022/03/27 01:28:32;;;;;;;;;;;6.50;99.90;;;;;;5097015;28;19927;-73
2022/03/27 01:30:59;;;;;;;;;;;6.50;99.90;;;;;;5092388;28;19967;-72
2022/03/27 01:33:26;;;;;;;;;;;6.40;99.90;;;;;;5091780;28;20375;-72
2022/03/27 01:35:53;;;;;;;;;;;6.40;99.90;;;;;;5092000;28;20003;-72
2022/03/27 01:38:20;;;;;;;;;;;6.40;99.90;;;;;;5094206;28;19923;-73
2022/03/27 01:40:47;;;;;;;;;;;6.30;99.90;;;;;;5102068;28;20011;-72
2022/03/27 01:43:13;;;;;;;;;;;6.30;99.90;;;;;;5106769;28;19924;-72
2022/03/27 01:45:41;;;;;;;;;;;6.20;99.90;;;;;;5099004;28;19928;-72
2022/03/27 01:48:07;;;;;;;;;;;6.10;99.90;;;;;;5091997;28;19924;-72
2022/03/27 01:50:34;;;;;;;;;;;6.10;99.90;;;;;;5091580;28;20015;-72
2022/03/27 01:53:01;;;;;;;;;;;6.00;99.90;;;;;;5077628;28;19929;-72
2022/03/27 01:55:30;;;;;;;;;;;6.00;99.90;;;;;;5099364;28;20043;-72
2022/03/27 01:57:59;;;;;;;;;;;6.00;99.90;;;;;;5104910;28;19985;-73
2022/03/27 02:00:28;;;;;;;;;;;6.00;99.90;;;;;;5099665;28;19931;-73
2022/03/27 02:02:55;;;;;;;;;;;5.90;99.90;;;;;;5103246;28;19924;-73
2022/03/27 02:05:22;;;;;;;;;;;5.80;99.90;;;;;;5094370;28;19928;-72
2022/03/27 02:07:49;;;;;;;;;;;5.80;99.90;;;;;;5095298;28;19930;-73
2022/03/27 02:10:17;;;;;;;;;;;5.70;99.90;;;;;;5084672;28;19988;-73
2022/03/27 02:12:46;;;;;;;;;;;5.80;99.90;;;;;;5091330;28;19930;-73
2022/03/27 02:15:13;;;;;;;;;;;5.80;99.90;;;;;;5105449;28;19959;-72
2022/03/27 02:17:40;;;;;;;;;;;5.70;99.90;;;;;;5094114;28;20374;-72
2022/03/27 02:20:07;;;;;;;;;;;5.80;99.90;;;;;;5096050;28;20343;-73
2022/03/27 02:22:34;;;;;;;;;;;5.70;99.90;;;;;;5091761;28;20010;-73
2022/03/27 02:25:01;;;;;;;;;;;5.70;99.90;;;;;;5098477;28;19946;-73
2022/03/27 02:27:27;;;;;;;;;;;5.60;99.90;;;;;;5092975;28;20577;-72
2022/03/27 02:29:54;;;;;;;;;;;5.60;99.90;;;;;;5104222;28;19924;-72
2022/03/27 02:32:21;;;;;;;;;;;5.50;99.90;;;;;;5106286;28;20039;-73
2022/03/27 02:34:48;;;;;;;;;;;5.40;99.90;;;;;;5110466;28;20530;-72
2022/03/27 02:37:14;;;;;;;;;;;5.40;99.90;;;;;;5099632;28;20341;-73
2022/03/27 02:39:44;;;;;;;;;;;5.40;99.90;;;;;;5095354;28;19950;-72
2022/03/27 02:42:11;;;;;;;;;;;5.40;99.90;;;;;;5100868;28;20017;-72
2022/03/27 02:44:37;;;;;;;;;;;5.30;99.90;;;;;;5087586;28;20010;-73
2022/03/27 02:47:05;;;;;;;;;;;5.20;99.90;;;;;;5091103;28;20371;-72
2022/03/27 02:49:32;;;;;;;;;;;5.10;99.90;;;;;;5091296;28;20369;-72
2022/03/27 02:51:59;;;;;;;;;;;5.00;99.90;;;;;;5105914;28;19924;-72
2022/03/27 02:54:26;;;;;;;;;;;4.90;99.90;;;;;;5091471;28;20026;-72
2022/03/27 02:56:52;;;;;;;;;;;4.80;99.90;;;;;;5097061;28;19929;-72
2022/03/27 02:59:21;;;;;;;;;;;4.70;99.90;;;;;;5109483;28;20267;-72
2022/03/27 03:01:48;;;;;;;;;;;4.70;99.90;;;;;;5093086;28;19924;-72
2022/03/27 03:04:15;;;;;;;;;;;4.60;99.90;;;;;;5091176;28;19928;-72
2022/03/27 03:06:43;;;;;;;;;;;4.50;99.90;;;;;;5091875;28;19928;-72
2022/03/27 03:09:10;;;;;;;;;;;4.60;99.90;;;;;;5105502;28;20008;-72
2022/03/27 03:11:36;;;;;;;;;;;4.60;99.90;;;;;;5100411;28;19955;-72
2022/03/27 03:14:03;;;;;;;;;;;4.60;99.90;;;;;;5091998;28;20295;-72
2022/03/27 03:16:55;;;;;;;;;;;4.70;99.90;;;;;;5094895;28;19977;-72
2022/03/27 03:19:22;;;;;;;;;;;4.70;99.90;;;;;;5095167;28;19946;-72
2022/03/27 03:21:48;;;;;;;;;;;4.70;99.90;;;;;;5094538;28;19967;-72
2022/03/27 03:24:15;;;;;;;;;;;4.70;99.90;;;;;;5095303;28;19928;-71
2022/03/27 03:26:42;;;;;;;;;;;4.60;99.90;;;;;;5093630;28;19950;-71
2022/03/27 03:29:11;;;;;;;;;;;4.60;99.90;;;;;;5094836;28;19924;-72
2022/03/27 03:31:38;;;;;;;;;;;4.60;99.90;;;;;;5095233;28;20342;-72
2022/03/27 03:34:05;;;;;;;;;;;4.60;99.90;;;;;;5100529;28;19924;-72
2022/03/27 03:36:35;;;;;;;;;;;4.60;99.90;;;;;;5108060;28;19924;-72
2022/03/27 03:39:02;;;;;;;;;;;4.50;99.90;;;;;;5081155;28;20401;-72
2022/03/27 03:41:29;;;;;;;;;;;4.50;99.90;;;;;;5112378;28;19924;-71
2022/03/27 03:44:18;;;;;;;;;;;4.40;99.90;;;;;;5097102;28;19946;-72
2022/03/27 03:46:46;;;;;;;;;;;4.40;99.90;;;;;;5094603;28;19931;-72
2022/03/27 03:49:14;;;;;;;;;;;4.30;99.90;;;;;;5108219;28;20592;-72
2022/03/27 03:51:41;;;;;;;;;;;4.30;99.90;;;;;;5102485;28;19934;-72
2022/03/27 03:54:08;;;;;;;;;;;4.20;99.90;;;;;;5094351;28;19924;-72
2022/03/27 03:56:35;;;;;;;;;;;4.10;99.90;;;;;;5107795;28;19971;-72
2022/03/27 03:59:02;;;;;;;;;;;4.00;99.90;;;;;;5094041;28;20006;-73
2022/03/27 04:01:49;;;;;;;;;;;4.00;99.90;;;;;;5094038;28;19924;-73
2022/03/27 04:04:15;;;;;;;;;;;3.90;99.90;;;;;;5093428;28;19932;-72
2022/03/27 04:06:42;;;;;;;;;;;3.90;99.90;;;;;;5108001;28;19928;-72
2022/03/27 04:09:09;;;;;;;;;;;3.90;99.90;;;;;;5101268;28;19935;-72
2022/03/27 04:11:36;;;;;;;;;;;3.80;99.90;;;;;;5094436;28;19931;-72
2022/03/27 04:14:05;;;;;;;;;;;3.60;99.90;;;;;;5094328;28;19995;-73
2022/03/27 04:16:32;;;;;;;;;;;3.40;99.90;;;;;;5093662;28;20025;-71
2022/03/27 04:18:59;;;;;;;;;;;3.20;99.90;;;;;;5100105;28;19955;-71
2022/03/27 04:21:26;;;;;;;;;;;3.20;99.90;;;;;;5093639;28;19966;-71
2022/03/27 04:23:53;;;;;;;;;;;3.10;99.90;;;;;;5108128;28;20536;-72
2022/03/27 04:26:20;;;;;;;;;;;3.10;99.90;;;;;;5110477;28;20540;-72
2022/03/27 04:28:47;;;;;;;;;;;3.10;99.90;;;;;;5105731;28;19923;-71
2022/03/27 04:31:14;;;;;;;;;;;3.00;99.90;;;;;;5092723;28;20014;-71
2022/03/27 04:33:41;;;;;;;;;;;2.90;99.90;;;;;;5092002;28;20006;-72
2022/03/27 04:36:08;;;;;;;;;;;3.00;99.90;;;;;;5111171;28;20002;-72
2022/03/27 04:38:35;;;;;;;;;;;2.90;99.90;;;;;;5103856;28;20383;-72
2022/03/27 04:41:03;;;;;;;;;;;2.80;99.90;;;;;;5093039;28;19924;-72
2022/03/27 04:43:29;;;;;;;;;;;2.70;99.90;;;;;;5093473;28;19954;-72
2022/03/27 04:45:56;;;;;;;;;;;2.60;99.90;;;;;;5105294;28;19934;-71
2022/03/27 04:48:25;;;;;;;;;;;2.50;99.90;;;;;;5110137;28;19932;-72
2022/03/27 04:50:53;;;;;;;;;;;2.50;99.90;;;;;;5098923;28;19966;-72
2022/03/27 04:53:20;;;;;;;;;;;2.40;99.90;;;;;;5102658;28;20034;-71
2022/03/27 04:55:49;;;;;;;;;;;2.30;99.90;;;;;;5093536;28;20451;-71
2022/03/27 04:58:17;;;;;;;;;;;2.20;99.90;;;;;;5104388;27;20377;-71
2022/03/27 05:00:44;;;;;;;;;;;2.20;99.90;;;;;;5108989;28;19951;-71
2022/03/27 05:03:11;;;;;;;;;;;2.20;99.90;;;;;;5090367;28;19967;-71
2022/03/27 05:05:41;;;;;;;;;;;2.10;99.90;;;;;;5106456;28;19924;-71
2022/03/27 05:08:08;;;;;;;;;;;2.00;99.90;;;;;;5101328;28;20007;-71
2022/03/27 05:10:35;;;;;;;;;;;2.00;99.90;;;;;;5092755;28;19930;-71
2022/03/27 05:13:02;;;;;;;;;;;1.90;99.90;;;;;;5090269;28;20023;-72
2022/03/27 05:15:28;;;;;;;;;;;1.90;99.90;;;;;;5107440;28;19928;-72
2022/03/27 05:17:58;;;;;;;;;;;1.80;99.90;;;;;;5098766;28;19924;-72
2022/03/27 05:20:26;;;;;;;;;;;1.90;99.90;;;;;;5111304;28;19962;-72
2022/03/27 05:22:53;;;;;;;;;;;1.90;99.90;;;;;;5110411;28;19932;-72
2022/03/27 05:25:20;;;;;;;;;;;2.00;99.90;;;;;;5111216;28;20019;-72
2022/03/27 05:27:48;;;;;;;;;;;2.10;99.90;;;;;;5102653;28;19955;-71
2022/03/27 05:30:19;;;;;;;;;;;2.10;99.90;;;;;;5092058;28;19946;-72
2022/03/27 05:32:46;;;;;;;;;;;2.20;99.90;;;;;;5091699;28;19924;-71
2022/03/27 05:35:13;;;;;;;;;;;2.30;99.90;;;;;;5097792;28;19974;-72
2022/03/27 05:37:41;;;;;;;;;;;2.30;99.90;;;;;;5106531;28;19924;-70
2022/03/27 05:40:11;;;;;;;;;;;2.40;99.90;;;;;;5100443;28;19924;-70
2022/03/27 05:42:38;;;;;;;;;;;2.50;99.90;;;;;;5099502;28;19924;-71
2022/03/27 05:45:08;;;;;;;;;;;2.80;99.90;;;;;;5092369;28;19973;-71
2022/03/27 05:47:37;;;;;;;;;;;3.00;99.90;;;;;;5098942;28;19969;-70
2022/03/27 05:50:04;;;;;;;;;;;3.30;99.90;;;;;;5090074;28;19924;-70
2022/03/27 05:52:31;;;;;;;;;;;3.60;99.90;;;;;;5088252;28;19924;-70
2022/03/27 05:54:58;;;;;;;;;;;3.80;99.90;;;;;;5092081;28;20500;-70
2022/03/27 05:57:27;;;;;;;;;;;4.00;99.90;;;;;;5106161;28;19923;-70
2022/03/27 05:59:54;;;;;;;;;;;4.20;99.90;;;;;;5096232;28;19998;-70
2022/03/27 06:02:21;;;;;;;;;;;4.30;99.90;;;;;;5097470;28;19924;-70
2022/03/27 06:04:48;;;;;;;;;;;4.40;99.90;;;;;;5084374;28;20006;-70
2022/03/27 06:07:14;;;;;;;;;;;4.50;99.90;;;;;;5102980;28;19924;-70
2022/03/27 06:09:41;;;;;;;;;;;4.60;99.90;;;;;;5101710;28;20003;-70
2022/03/27 06:12:08;;;;;;;;;;;4.70;99.90;;;;;;5074304;28;19946;-70
2022/03/27 06:14:37;;;;;;;;;;;4.80;99.90;;;;;;5104755;28;19924;-70
2022/03/27 06:17:04;;;;;;;;;;;5.30;99.90;;;;;;5099715;28;20018;-71
2022/03/27 06:19:31;;;;;;;;;;;6.30;99.90;;;;;;5099550;28;19956;-71
2022/03/27 06:21:58;;;;;;;;;;;7.50;99.90;;;;;;5091558;28;19934;-71
2022/03/27 06:24:25;;;;;;;;;;;8.80;99.90;;;;;;5092224;28;19973;-70
2022/03/27 06:26:51;;;;;;;;;;;9.90;99.90;;;;;;5092597;28;19930;-71
2022/03/27 06:29:20;;;;;;;;;;;10.80;99.90;;;;;;5104874;28;19924;-71
2022/03/27 06:31:50;;;;;;;;;;;11.60;99.90;;;;;;5101854;28;19923;-71
2022/03/27 06:34:17;;;;;;;;;;;12.00;99.90;;;;;;5100602;28;20407;-72
2022/03/27 06:36:43;;;;;;;;;;;12.70;99.90;;;;;;5100422;28;20024;-71
2022/03/27 06:39:10;;;;;;;;;;;13.00;99.90;;;;;;5090507;28;20007;-72
2022/03/27 06:41:37;;;;;;;;;;;13.50;99.90;;;;;;5090841;28;19924;-72
2022/03/27 06:44:04;;;;;;;;;;;13.90;99.90;;;;;;5098541;28;19928;-72
2022/03/27 06:46:31;;;;;;;;;;;13.90;99.90;;;;;;5089615;28;19959;-72
2022/03/27 06:48:57;;;;;;;;;;;14.10;99.90;;;;;;5076765;28;19966;-72
2022/03/27 06:51:24;;;;;;;;;;;14.40;99.90;;;;;;5100976;28;19967;-72
2022/03/27 06:53:51;;;;;;;;;;;14.70;99.90;;;;;;5073158;28;20032;-72
2022/03/27 06:56:17;;;;;;;;;;;15.20;99.90;;;;;;5098070;28;19966;-71
2022/03/27 06:58:49;;;;;;;;;;;15.10;99.90;;;;;;5092075;28;19955;-70
2022/03/27 07:04:02;;;;;;;;;;;14.90;99.90;;;;;;5102092;28;19924;-71
2022/03/27 07:06:28;;;;;;;;;;;15.30;99.90;;;;;;5091246;28;19924;-71
2022/03/27 07:08:55;;;;;;;;;;;15.70;99.90;;;;;;5089902;28;19927;-71
2022/03/27 07:11:24;;;;;;;;;;;15.80;99.90;;;;;;5090917;28;19935;-72
2022/03/27 07:13:54;;;;;;;;;;;15.80;99.90;;;;;;5086987;28;20418;-71
2022/03/27 07:16:21;;;;;;;;;;;15.80;99.90;;;;;;5093018;28;20465;-72
2022/03/27 07:18:49;;;;;;;;;;;15.80;99.90;;;;;;5109337;28;19969;-71
2022/03/27 07:21:17;;;;;;;;;;;15.80;99.90;;;;;;5080545;28;19946;-71
2022/03/27 07:23:44;;;;;;;;;;;15.90;99.90;;;;;;5104754;28;20412;-72
2022/03/27 07:26:11;;;;;;;;;;;16.00;99.90;;;;;;5076282;28;20030;-71
2022/03/27 07:28:38;;;;;;;;;;;16.00;99.90;;;;;;5108752;28;19930;-71
2022/03/27 07:31:04;;;;;;;;;;;15.90;99.90;;;;;;5099934;28;19962;-71
2022/03/27 07:33:31;;;;;;;;;;;16.00;99.90;;;;;;5101868;28;19950;-71
2022/03/27 07:35:59;;;;;;;;;;;16.40;99.90;;;;;;5107843;28;19924;-71
2022/03/27 07:38:26;;;;;;;;;;;16.40;99.90;;;;;;5101946;28;20023;-71
2022/03/27 07:40:59;;;;;;;;;;;16.40;99.90;;;;;;5101231;28;20359;-72
2022/03/27 07:43:30;;;;;;;;;;;16.70;99.90;;;;;;5109884;28;19924;-71
2022/03/27 07:45:58;;;;;;;;;;;16.60;99.90;;;;;;5090074;28;20374;-71
2022/03/27 07:48:27;;;;;;;;;;;16.80;99.90;;;;;;5104497;28;19934;-71
2022/03/27 07:50:56;;;;;;;;;;;16.70;99.90;;;;;;5098891;28;19927;-71
2022/03/27 07:53:22;;;;;;;;;;;16.50;99.90;;;;;;5088782;28;19924;-72
2022/03/27 07:55:49;;;;;;;;;;;16.70;99.90;;;;;;5109894;28;20040;-72
2022/03/27 07:58:16;;;;;;;;;;;16.80;99.90;;;;;;5107965;28;20022;-71
2022/03/27 08:00:43;;;;;;;;;;;16.90;99.90;;;;;;5102542;28;20019;-71
2022/03/27 08:03:12;;;;;;;;;;;17.00;99.90;;;;;;5093096;28;19928;-71
2022/03/27 08:05:39;;;;;;;;;;;17.30;99.90;;;;;;5094955;28;19998;-71
2022/03/27 08:08:06;;;;;;;;;;;17.50;99.90;;;;;;5100410;28;19982;-72
2022/03/27 08:10:36;;;;;;;;;;;17.50;99.90;;;;;;5112220;28;20018;-72
2022/03/27 08:13:03;;;;;;;;;;;17.40;99.90;;;;;;5094859;28;19950;-72
2022/03/27 08:15:30;;;;;;;;;;;17.60;99.90;;;;;;5098124;28;19955;-72
2022/03/27 08:17:57;;;;;;;;;;;17.90;99.90;;;;;;5094033;28;19963;-71
2022/03/27 08:20:24;;;;;;;;;;;18.10;99.90;;;;;;5093259;28;19963;-71
2022/03/27 08:22:51;;;;;;;;;;;18.00;99.90;;;;;;5108970;28;19924;-71
2022/03/27 08:28:04;;;;;;;;;;;17.70;99.90;;;;;;5099421;28;19967;-71
2022/03/27 08:30:31;;;;;;;;;;;17.20;99.90;;;;;;5102284;28;20251;-71
2022/03/27 08:32:58;;;;;;;;;;;16.90;99.90;;;;;;5097375;28;20018;-70
2022/03/27 08:35:24;;;;;;;;;;;16.60;99.90;;;;;;5111156;28;20305;-71
2022/03/27 08:37:51;;;;;;;;;;;16.50;99.90;;;;;;5096899;28;19970;-71
2022/03/27 08:40:20;;;;;;;;;;;16.60;99.90;;;;;;5097371;28;20370;-71
2022/03/27 08:42:59;;;;;;;;;;;16.70;99.90;;;;;;5090331;28;19924;-71
2022/03/27 08:45:29;;;;;;;;;;;17.00;99.90;;;;;;5093221;28;20424;-72
2022/03/27 08:47:56;;;;;;;;;;;17.20;99.90;;;;;;5092655;28;19967;-72
2022/03/27 08:50:31;;;;;;;;;;;17.20;99.90;;;;;;5092764;28;19949;-71
2022/03/27 08:53:01;;;;;;;;;;;17.20;99.90;;;;;;5100987;28;19967;-73
2022/03/27 08:55:34;;;;;;;;;;;17.40;99.90;;;;;;5095312;28;20039;-72
2022/03/27 08:58:03;;;;;;;;;;;17.20;99.90;;;;;;5111799;28;19928;-72
2022/03/27 09:00:31;;;;;;;;;;;17.10;99.90;;;;;;5111768;28;20014;-72
2022/03/27 09:02:58;;;;;;;;;;;17.30;99.90;;;;;;5095786;28;19932;-71
2022/03/27 09:05:26;;;;;;;;;;;17.20;99.90;;;;;;5111254;28;19924;-71
2022/03/27 09:07:53;;;;;;;;;;;17.60;99.90;;;;;;5100349;28;20012;-71
2022/03/27 09:10:21;;;;;;;;;;;18.30;99.90;;;;;;5074048;28;19924;-71
2022/03/27 09:12:50;;;;;;;;;;;18.50;99.90;;;;;;5107119;28;20023;-71
2022/03/27 09:15:19;;;;;;;;;;;18.40;99.90;;;;;;5100246;28;19971;-71
2022/03/27 09:18:02;;;;;;;;;;;18.40;99.90;;;;;;5110656;28;19924;-71
2022/03/27 09:20:41;;;;;;;;;;;18.60;99.90;;;;;;5095140;28;20378;-71
2022/03/27 09:23:19;;;;;;;;;;;19.30;99.90;;;;;;5101388;28;19934;-71
2022/03/27 09:25:47;;;;;;;;;;;19.80;99.90;;;;;;5096247;28;20497;-71
2022/03/27 09:28:24;;;;;;;;;;;19.70;99.90;;;;;;5091271;28;19938;-70
2022/03/27 09:30:53;;;;;;;;;;;19.70;99.90;;;;;;5106237;28;19924;-71
2022/03/27 09:33:37;;;;;;;;;;;19.90;99.90;;;;;;5091737;28;19938;-71
2022/03/27 09:36:08;;;;;;;;;;;20.10;99.90;;;;;;5099773;28;20001;-71
2022/03/27 09:38:38;;;;;;;;;;;20.70;99.90;;;;;;5092759;28;20021;-72
2022/03/27 09:41:05;;;;;;;;;;;21.10;99.90;;;;;;5100784;28;19946;-72
2022/03/27 09:43:34;;;;;;;;;;;20.90;99.90;;;;;;5101057;28;20412;-72
2022/03/27 09:46:02;;;;;;;;;;;21.10;99.90;;;;;;5094144;28;20057;-72
2022/03/27 09:48:29;;;;;;;;;;;21.40;99.90;;;;;;5110522;28;19924;-72
2022/03/27 09:50:58;;;;;;;;;;;21.50;99.90;;;;;;5091425;28;19985;-72
2022/03/27 09:53:27;;;;;;;;;;;21.70;99.90;;;;;;5089973;28;19935;-71
2022/03/27 09:55:59;;;;;;;;;;;21.70;99.90;;;;;;5099453;28;19946;-72
2022/03/27 09:58:33;;;;;;;;;;;21.70;99.80;;;;;;5091478;28;19934;-72
2022/03/27 10:01:07;;;;;;;;;;;22.10;99.60;;;;;;5091724;28;20002;-72
2022/03/27 10:03:37;;;;;;;;;;;22.60;98.80;;;;;;5091166;28;20022;-72
2022/03/27 10:06:04;;;;;;;;;;;22.60;98.80;;;;;;5090913;28;19935;-72
2022/03/27 10:08:31;;;;;;;;;;;22.50;98.70;;;;;;5087778;28;20015;-72
2022/03/27 10:10:58;;;;;;;;;;;22.70;98.10;;;;;;5104564;28;19955;-72
2022/03/27 10:13:28;;;;;;;;;;;23.20;97.90;;;;;;5101253;28;19930;-72
2022/03/27 10:15:57;;;;;;;;;;;23.80;97.20;;;;;;5086826;28;19924;-72
2022/03/27 10:18:27;;;;;;;;;;;24.20;97.30;;;;;;5093441;28;19932;-72
2022/03/27 10:20:57;;;;;;;;;;;24.30;97.30;;;;;;5109604;28;20011;-72
2022/03/27 10:23:24;;;;;;;;;;;23.90;95.50;;;;;;5074292;28;19939;-72
2022/03/27 10:25:55;;;;;;;;;;;23.90;95.40;;;;;;5097387;28;19923;-72
2022/03/27 10:28:22;;;;;;;;;;;24.20;95.20;;;;;;5098932;28;19925;-72
2022/03/27 10:30:49;;;;;;;;;;;24.40;94.60;;;;;;5099210;28;19924;-72
2022/03/27 10:33:17;;;;;;;;;;;24.30;94.60;;;;;;5091047;28;19935;-72
2022/03/27 10:35:43;;;;;;;;;;;24.40;94.30;;;;;;5091413;28;19934;-72
2022/03/27 10:38:16;;;;;;;;;;;25.00;94.40;;;;;;5098602;28;19923;-72
2022/03/27 10:41:02;;;;;;;;;;;24.90;94.20;;;;;;5095230;28;19985;-72
2022/03/27 10:43:49;;;;;;;;;;;25.10;94.30;;;;;;5100942;28;19974;-71
2022/03/27 10:46:17;;;;;;;;;;;;;;;;;;5094386;28;20019;-71
2022/03/27 10:48:44;;;;;;;;;;;25.80;93.30;;;;;;5108620;28;20587;-70
2022/03/27 10:51:34;;;;;;;;;;;25.00;92.50;;;;;;5111160;28;19967;-71
2022/03/27 10:54:05;;;;;;;;;;;26.00;92.60;;;;;;5092585;28;20014;-72
2022/03/27 10:56:34;;;;;;;;;;;26.20;92.60;;;;;;5072299;28;20627;-72
2022/03/27 10:59:08;;;;;;;;;;;26.70;92.50;;;;;;5090932;28;19947;-72
2022/03/27 11:01:38;;;;;;;;;;;26.40;92.00;;;;;;5091019;28;19928;-71
2022/03/27 11:04:07;;;;;;;;;;;26.00;91.50;;;;;;5089872;28;19924;-71
2022/03/27 11:06:57;;;;;;;;;;;25.80;91.40;;;;;;5073002;28;20011;-71
2022/03/27 11:09:33;;;;;;;;;;;26.10;91.00;;;;;;5099007;28;19930;-71
2022/03/27 11:12:04;;;;;;;;;;;26.90;91.00;;;;;;5107662;28;19928;-71
2022/03/27 11:14:50;;;;;;;;;;;27.00;90.60;;;;;;5090767;28;19966;-71
2022/03/27 11:17:29;;;;;;;;;;;25.90;90.80;;;;;;5101940;28;19923;-72
2022/03/27 11:19:59;;;;;;;;;;;25.80;91.70;;;;;;5093447;28;19936;-71
2022/03/27 11:22:45;;;;;;;;;;;26.50;90.50;;;;;;5108626;28;19924;-71
2022/03/27 11:25:45;;;;;;;;;;;27.40;90.00;;;;;;5111567;28;19931;-71
2022/03/27 11:28:13;;;;;;;;;;;27.10;89.40;;;;;;5067444;28;19924;-71
2022/03/27 11:31:00;;;;;;;;;;;26.80;88.60;;;;;;5095807;28;19981;-71
2022/03/27 11:33:29;;;;;;;;;;;26.60;88.90;;;;;;5104348;28;19924;-71
2022/03/27 11:36:01;;;;;;;;;;;26.50;89.70;;;;;;5094389;28;19992;-71
2022/03/27 11:38:29;;;;;;;;;;;26.70;89.20;;;;;;5093054;28;20366;-72
2022/03/27 11:40:56;;;;;;;;;;;26.60;88.70;;;;;;5108821;28;19960;-72
2022/03/27 11:43:33;;;;;;;;;;;26.50;88.20;;;;;;5093832;28;20275;-71
2022/03/27 11:46:01;;;;;;;;;;;25.70;88.70;;;;;;5099408;28;19959;-71
2022/03/27 11:48:28;;;;;;;;;;;25.60;89.20;;;;;;5102604;28;19924;-72
2022/03/27 11:50:55;;;;;;;;;;;25.80;90.10;;;;;;5076392;28;19950;-72
2022/03/27 11:53:29;;;;;;;;;;;26.40;89.00;;;;;;5096987;28;19924;-72
2022/03/27 11:56:03;;;;;;;;;;;26.80;89.00;;;;;;5097643;28;20052;-72
2022/03/27 11:58:30;;;;;;;;;;;25.90;88.10;;;;;;5092917;28;19924;-71
2022/03/27 12:01:01;;;;;;;;;;;25.40;88.90;;;;;;5107888;28;20372;-71
2022/03/27 12:03:28;;;;;;;;;;;25.40;89.40;;;;;;5093367;28;20657;-71
2022/03/27 12:06:02;;;;;;;;;;;25.60;89.60;;;;;;5093614;28;19935;-71
2022/03/27 12:08:33;;;;;;;;;;;25.70;88.40;;;;;;5078211;28;20018;-71
2022/03/27 12:11:04;;;;;;;;;;;25.90;87.20;;;;;;5104014;28;19999;-71
2022/03/27 12:13:36;;;;;;;;;;;25.90;88.10;;;;;;5110500;28;19930;-70
2022/03/27 12:16:03;;;;;;;;;;;26.20;88.30;;;;;;5093537;28;19924;-70
2022/03/27 12:18:39;;;;;;;;;;;26.00;87.50;;;;;;5093421;28;19963;-71
2022/03/27 12:21:10;;;;;;;;;;;25.70;87.10;;;;;;5091639;28;19964;-72
2022/03/27 12:23:38;;;;;;;;;;;25.80;88.50;;;;;;5101777;28;19924;-71
2022/03/27 12:29:39;;;;;;;;;;;25.90;89.00;;;;;;5112318;28;20015;-71
2022/03/27 12:32:05;;;;;;;;;;;25.00;89.60;;;;;;5105514;28;20026;-70
2022/03/27 12:34:32;;;;;;;;;;;24.90;89.50;;;;;;5093595;28;19924;-71
2022/03/27 12:37:09;;;;;;;;;;;25.00;89.10;;;;;;5106658;28;19950;-71
2022/03/27 12:39:36;;;;;;;;;;;25.40;88.60;;;;;;5110699;28;19988;-71
2022/03/27 12:42:03;;;;;;;;;;;25.30;88.40;;;;;;5098263;28;20018;-71
2022/03/27 12:44:49;;;;;;;;;;;25.00;89.20;;;;;;5093085;28;20022;-71
2022/03/27 12:47:16;;;;;;;;;;;25.00;88.80;;;;;;5092187;28;19944;-71
2022/03/27 12:49:46;;;;;;;;;;;25.40;88.40;;;;;;5097031;28;19931;-71
2022/03/27 12:52:13;;;;;;;;;;;25.30;87.40;;;;;;5090630;28;19931;-71
2022/03/27 12:55:00;;;;;;;;;;;25.80;87.60;;;;;;5075997;28;20389;-70
2022/03/27 12:57:46;;;;;;;;;;;26.00;85.60;;;;;;5085493;28;19930;-71
2022/03/27 13:00:13;;;;;;;;;;;25.80;85.70;;;;;;5093526;28;19924;-71
2022/03/27 13:02:40;;;;;;;;;;;26.10;86.40;;;;;;5092528;28;19963;-71
2022/03/27 13:05:07;;;;;;;;;;;26.00;85.50;;;;;;5100557;28;19930;-71
2022/03/27 13:07:57;;;;;;;;;;;25.80;85.80;;;;;;5111050;28;20021;-71
2022/03/27 13:10:25;;;;;;;;;;;26.00;86.60;;;;;;5102814;28;20540;-70
2022/03/27 13:13:17;;;;;;;;;;;25.60;86.80;;;;;;5090158;28;19946;-71
2022/03/27 13:15:54;;;;;;;;;;;25.30;87.90;;;;;;5083186;28;20485;-70
2022/03/27 13:18:28;;;;;;;;;;;24.80;87.40;;;;;;5099398;28;20351;-70
2022/03/27 13:20:54;;;;;;;;;;;25.10;87.80;;;;;;5107182;28;20614;-71
2022/03/27 13:23:21;;;;;;;;;;;25.60;87.20;;;;;;5092545;28;19931;-71
2022/03/27 13:25:48;;;;;;;;;;;25.90;86.20;;;;;;5104144;28;20019;-70
2022/03/27 13:28:14;;;;;;;;;;;26.30;86.80;;;;;;5094159;28;19924;-71
2022/03/27 13:30:41;;;;;;;;;;;26.60;86.10;;;;;;5093358;28;20641;-71
2022/03/27 13:33:08;;;;;;;;;;;26.70;85.90;;;;;;5100626;28;19927;-71
2022/03/27 13:35:35;;;;;;;;;;;26.80;85.70;;;;;;5093463;28;19924;-72
2022/03/27 13:38:05;;;;;;;;;;;27.10;86.70;;;;;;5098711;28;19971;-70
2022/03/27 13:43:22;;;;;;;;;;;27.10;85.00;;;;;;5101109;28;20417;-72
2022/03/27 13:45:52;;;;;;;;;;;27.10;85.70;;;;;;5092113;28;19959;-70
2022/03/27 13:48:18;;;;;;;;;;;26.80;85.40;;;;;;5105124;28;19931;-71
2022/03/27 13:50:45;;;;;;;;;;;27.10;85.20;;;;;;5101190;28;19924;-70
2022/03/27 13:53:16;;;;;;;;;;;27.40;85.10;;;;;;5095850;28;19924;-70
2022/03/27 13:55:43;;;;;;;;;;;27.30;84.20;;;;;;5099968;28;20011;-71
2022/03/27 13:58:10;;;;;;;;;;;27.40;83.90;;;;;;5091625;28;19950;-71
2022/03/27 14:00:36;;;;;;;;;;;27.60;84.20;;;;;;5088540;28;19932;-70
2022/03/27 14:03:04;;;;;;;;;;;28.10;84.40;;;;;;5074277;28;19924;-70
2022/03/27 14:05:30;;;;;;;;;;;28.60;83.60;;;;;;5092113;28;19978;-71
2022/03/27 14:07:57;;;;;;;;;;;28.70;82.90;;;;;;5091014;28;20012;-70
2022/03/27 14:10:24;;;;;;;;;;;29.20;82.60;;;;;;5091454;28;19963;-70
2022/03/27 14:12:51;;;;;;;;;;;28.40;83.00;;;;;;5091899;28;19946;-70
2022/03/27 14:15:18;;;;;;;;;;;28.70;83.70;;;;;;5092008;28;20542;-70
2022/03/27 14:17:48;;;;;;;;;;;28.60;82.90;;;;;;5103905;28;19924;-70
2022/03/27 14:20:16;;;;;;;;;;;28.30;83.00;;;;;;5108169;28;19923;-70
2022/03/27 14:22:43;;;;;;;;;;;28.20;83.20;;;;;;5104783;28;19924;-70
2022/03/27 14:25:14;;;;;;;;;;;28.20;83.30;;;;;;5092622;28;19967;-71
2022/03/27 14:27:41;;;;;;;;;;;27.90;83.30;;;;;;5088039;28;19928;-71
2022/03/27 14:30:09;;;;;;;;;;;28.10;83.50;;;;;;5092156;28;19974;-71
2022/03/27 14:32:37;;;;;;;;;;;28.10;84.10;;;;;;5105199;28;20377;-71
2022/03/27 14:35:05;;;;;;;;;;;28.60;83.60;;;;;;5081552;28;19930;-71
2022/03/27 14:37:33;;;;;;;;;;;28.50;83.20;;;;;;5109814;28;19985;-71
2022/03/27 14:40:00;;;;;;;;;;;29.00;82.50;;;;;;5100646;28;19998;-70
2022/03/27 14:42:29;;;;;;;;;;;29.90;82.70;;;;;;5095512;28;19955;-70
2022/03/27 14:44:57;;;;;;;;;;;29.90;81.20;;;;;;5101384;28;19924;-70
2022/03/27 14:47:26;;;;;;;;;;;29.60;82.00;;;;;;5090369;28;19971;-70
2022/03/27 14:49:53;;;;;;;;;;;28.90;82.50;;;;;;5098949;28;20378;-70